Time;durP1;ratioP1;P1;durP2;ratioP2;P2;SDS_P1;SDS_P2;PMS_P1;PMS_P2;Temp;Humidity;BMP_temperature;BMP_pressure;BME280_temperature;BME280_humidity;BME280_pressure;Samples;Min_cycle;Max_cycle;Signal;HPM_P1;HPM_P2
2023/11/18 06:01:18;;;;;;;;;;;;;;;;;;5629444;23;19968;-49
2023/11/18 06:03:45;;;;;;;;;;;;;;;;;;5009898;28;19916;-48
2023/11/18 06:06:11;;;;;;;;;;;;;;;;;;5010211;28;19909;-49
2023/11/18 06:08:41;;;;;;;;;;;;;;;;;;5009982;28;19937;-47
2023/11/18 06:11:12;;;;;;;;;;;;;;;;;;4992448;28;19917;-48
2023/11/18 06:13:42;;;;;;;;;;;;;;;;;;5009976;28;19955;-48
2023/11/18 06:16:07;;;;;;;;;;;;;;;;;;5010071;28;19910;-49
2023/11/18 06:18:35;;;;;;;;;;;;;;;;;;5009963;28;19933;-45
2023/11/18 06:21:01;;;;;;;;;;;;;;;;;;5010103;28;19909;-47
2023/11/18 06:23:27;;;;;;;;;;;;;;;;;;5009797;28;20579;-47
2023/11/18 06:25:53;;;;;;;;;;;;;;;;;;5009492;28;19916;-46
2023/11/18 06:28:19;;;;;;;;;;;;;;;;;;5009282;28;20016;-48
2023/11/18 06:30:45;;;;;;;;;;;;;;;;;;5009640;28;19964;-45
2023/11/18 06:33:12;;;;;;;;;;;;;;;;;;5009684;28;19911;-48
2023/11/18 06:35:40;;;;;;;;;;;;;;;;;;5009750;28;19979;-46
2023/11/18 06:38:07;;;;;;;;;;;;;;;;;;5009238;28;20405;-49
2023/11/18 06:40:35;;;;;;;;;;;;;;;;;;5009814;28;19910;-47
2023/11/18 06:43:02;;;;;;;;;;;;;;;;;;5009684;28;20381;-46
2023/11/18 06:45:31;;;;;;;;;;;;;;;;;;5009460;28;20181;-47
2023/11/18 06:47:58;;;;;;;;;;;;;;;;;;5009529;28;19909;-49
2023/11/18 06:50:24;;;;;;;;;;;;;;;;;;5009578;28;20011;-47
2023/11/18 06:52:51;;;;;;;;;;;;;;;;;;5009779;28;20009;-47
2023/11/18 06:55:17;;;;;;;;;;;;;;;;;;5009369;28;20012;-49
2023/11/18 06:57:44;;;;;;;;;;;;;;;;;;5009303;28;20293;-48
2023/11/18 07:00:10;;;;;;;;;;;;;;;;;;5009276;28;20482;-49
2023/11/18 07:02:36;;;;;;;;;;;;;;;;;;5009114;28;20016;-47
2023/11/18 07:05:01;;;;;;;;;;;;;;;;;;5009714;28;19910;-49
2023/11/18 07:07:27;;;;;;;;;;;;;;;;;;5009093;28;20053;-48
2023/11/18 07:09:53;;;;;;;;;;;;;;;;;;5009455;28;19913;-46
2023/11/18 07:12:19;;;;;;;;;;;;;;;;;;5009087;28;19961;-46
2023/11/18 07:14:45;;;;;;;;;;;;;;;;;;5009212;28;20123;-45
2023/11/18 07:17:11;;;;;;;;;;;;;;;;;;5009349;28;20003;-48
2023/11/18 07:19:37;;;;;;;;;;;;;;;;;;5006871;28;19972;-46
2023/11/18 07:22:06;;;;;;;;;;;;;;;;;;5007870;28;19963;-48
2023/11/18 07:24:32;;;;;;;;;;;;;;;;;;5006422;28;19917;-49
2023/11/18 07:26:59;;;;;;;;;;;;;;;;;;5007268;28;19910;-47
2023/11/18 07:29:26;;;;;;;;;;;;;;;;;;5007472;28;20298;-49
2023/11/18 07:31:54;;;;;;;;;;;;;;;;;;5007451;28;19913;-46
2023/11/18 07:34:21;;;;;;;;;;;;;;;;;;5007295;28;19920;-46
2023/11/18 07:36:48;;;;;;;;;;;;;;;;;;5007268;28;19921;-47
2023/11/18 07:39:15;;;;;;;;;;;;;;;;;;5007806;28;19981;-45
2023/11/18 07:41:41;;;;;;;;;;;;;;;;;;5007560;28;20301;-45
2023/11/18 07:44:10;;;;;;;;;;;;;;;;;;5007125;28;19914;-47
2023/11/18 07:46:38;;;;;;;;;;;;;;;;;;5007395;28;19917;-46
2023/11/18 07:49:04;;;;;;;;;;;;;;;;;;5006750;28;20283;-46
2023/11/18 07:51:30;;;;;;;;;;;;;;;;;;5007306;28;19929;-47
2023/11/18 07:53:56;;;;;;;;;;;;;;;;;;5007051;28;19995;-48
2023/11/18 07:56:22;;;;;;;;;;;;;;;;;;5007322;28;19917;-47
2023/11/18 07:58:48;;;;;;;;;;;;;;;;;;5009511;28;19916;-49
2023/11/18 08:01:16;;;;;;;;;;;;;;;;;;5011257;28;20387;-46
2023/11/18 08:03:41;;;;;;;;;;;;;;;;;;5010241;28;20298;-48
2023/11/18 08:06:07;;;;;;;;;;;;;;;;;;5011248;28;19918;-46
2023/11/18 08:08:33;;;;;;;;;;;;;;;;;;5014004;28;20004;-47
2023/11/18 08:10:59;;;;;;;;;;;;;;;;;;5011108;28;20069;-45
2023/11/18 08:13:26;;;;;;;;;;;;;;;;;;5011444;28;19910;-49
2023/11/18 08:15:51;;;;;;;;;;;;;;;;;;5011207;28;19913;-48
2023/11/18 08:18:17;;;;;;;;;;;;;;;;;;5011717;28;19916;-46
2023/11/18 08:20:43;;;;;;;;;;;;;;;;;;5024765;28;19920;-47
2023/11/18 08:23:09;;;;;;;;;;;;;;;;;;5013482;28;19924;-46
2023/11/18 08:25:40;;;;;;;;;;;;;;;;;;5010796;28;20413;-47
2023/11/18 08:28:07;;;;;;;;;;;;;;;;;;5011077;28;19917;-48
2023/11/18 08:30:33;;;;;;;;;;;;;;;;;;5011334;28;19935;-48
2023/11/18 08:32:59;;;;;;;;;;;;;;;;;;5010765;28;19940;-46
2023/11/18 08:35:25;;;;;;;;;;;;;;;;;;5011028;28;20293;-47
2023/11/18 08:37:52;;;;;;;;;;;;;;;;;;5010900;28;19913;-48
2023/11/18 08:40:21;;;;;;;;;;;;;;;;;;5011373;28;19936;-46
2023/11/18 08:42:50;;;;;;;;;;;;;;;;;;5011523;28;19952;-49
2023/11/18 08:45:16;;;;;;;;;;;;;;;;;;5011271;28;19936;-47
2023/11/18 08:47:42;;;;;;;;;;;;;;;;;;5010725;28;19915;-47
2023/11/18 08:50:11;;;;;;;;;;;;;;;;;;5010776;28;19910;-46
2023/11/18 08:52:37;;;;;;;;;;;;;;;;;;5010928;28;19968;-45
2023/11/18 08:55:13;;;;;;;;;;;;;;;;;;5006077;28;19953;-48
2023/11/18 08:57:52;;;;;;;;;;;;;;;;;;5008127;28;19920;-48
2023/11/18 09:03:05;;;;;;;;;;;;;;;;;;5008866;28;19963;-47
2023/11/18 09:05:31;;;;;;;;;;;;;;;;;;5009565;28;19909;-49
2023/11/18 09:07:57;;;;;;;;;;;;;;;;;;5008330;28;19913;-47
2023/11/18 09:10:24;;;;;;;;;;;;;;;;;;5003399;28;19909;-46
2023/11/18 09:12:49;;;;;;;;;;;;;;;;;;5009860;28;19970;-50
2023/11/18 09:15:22;;;;;;;;;;;;;;;;;;5009916;28;20301;-48
2023/11/18 09:17:48;;;;;;;;;;;;;;;;;;4990103;28;19921;-48
2023/11/18 09:20:20;;;;;;;;;;;;;;;;;;5007895;28;20354;-46
2023/11/18 09:22:46;;;;;;;;;;;;;;;;;;5006760;28;19968;-49
2023/11/18 09:25:12;;;;;;;;;;;;;;;;;;5009367;28;19913;-45
2023/11/18 09:27:39;;;;;;;;;;;;;;;;;;4996492;28;19996;-45
2023/11/18 09:30:13;;;;;;;;;;;;;;;;;;4991448;28;19964;-47
2023/11/18 09:32:39;;;;;;;;;;;;;;;;;;5005144;28;19968;-48
2023/11/18 09:35:09;;;;;;;;;;;;;;;;;;4996621;28;20430;-46
2023/11/18 09:37:35;;;;;;;;;;;;;;;;;;5007102;28;20848;-48
2023/11/18 09:40:11;;;;;;;;;;;;;;;;;;4997846;28;19957;-49
2023/11/18 09:42:37;;;;;;;;;;;;;;;;;;5006249;28;19959;-48
2023/11/18 09:45:05;;;;;;;;;;;;;;;;;;5010844;28;19910;-49
2023/11/18 09:47:32;;;;;;;;;;;;;;;;;;5005860;28;20344;-48
2023/11/18 09:49:59;;;;;;;;;;;;;;;;;;5008256;28;19914;-48
2023/11/18 09:52:27;;;;;;;;;;;;;;;;;;5009381;28;20302;-50
2023/11/18 09:54:53;;;;;;;;;;;;;;;;;;5009821;28;19917;-48
2023/11/18 09:57:19;;;;;;;;;;;;;;;;;;5008640;28;19913;-48
2023/11/18 09:59:44;;;;;;;;;;;;;;;;;;5009817;28;19914;-49
2023/11/18 10:02:10;;;;;;;;;;;;;;;;;;5010112;28;19917;-48
2023/11/18 10:04:37;;;;;;;;;;;;;;;;;;5010207;28;19913;-46
2023/11/18 10:07:03;;;;;;;;;;;;;;;;;;5009943;28;19910;-45
2023/11/18 10:09:36;;;;;;;;;;;;;;;;;;5010789;28;19933;-46
2023/11/18 10:12:05;;;;;;;;;;;;;;;;;;5010132;28;19992;-50
2023/11/18 10:14:31;;;;;;;;;;;;;;;;;;5009505;28;20325;-49
2023/11/18 10:16:57;;;;;;;;;;;;;;;;;;5009999;28;19924;-48
2023/11/18 10:19:25;;;;;;;;;;;;;;;;;;5010115;28;20342;-47
2023/11/18 10:21:51;;;;;;;;;;;;;;;;;;5005157;28;19917;-44
2023/11/18 10:24:20;;;;;;;;;;;;;;;;;;5009117;28;19937;-48
2023/11/18 10:26:47;;;;;;;;;;;;;;;;;;5010119;28;19987;-44
2023/11/18 10:29:13;;;;;;;;;;;;;;;;;;5010004;28;19986;-46
2023/11/18 10:31:45;;;;;;;;;;;;;;;;;;5009191;28;19917;-44
2023/11/18 10:34:11;;;;;;;;;;;;;;;;;;5006547;28;19925;-48
2023/11/18 10:36:37;;;;;;;;;;;;;;;;;;5009161;28;20416;-44
2023/11/18 10:39:12;;;;;;;;;;;;;;;;;;5009933;28;19913;-43
2023/11/18 10:41:42;;;;;;;;;;;;;;;;;;5008712;28;19936;-45
2023/11/18 10:44:13;;;;;;;;;;;;;;;;;;5009743;28;19956;-44
2023/11/18 10:46:40;;;;;;;;;;;;;;;;;;5009370;28;20494;-45
2023/11/18 10:49:09;;;;;;;;;;;;;;;;;;5009684;28;19909;-44
2023/11/18 10:51:35;;;;;;;;;;;;;;;;;;5009505;28;19909;-44
2023/11/18 10:54:03;;;;;;;;;;;;;;;;;;5009191;28;20286;-44
2023/11/18 10:56:29;;;;;;;;;;;;;;;;;;5001107;28;19923;-48
2023/11/18 10:58:55;;;;;;;;;;;;;;;;;;5003830;28;19914;-46
2023/11/18 11:01:22;;;;;;;;;;;;;;;;;;5009547;28;19943;-46
2023/11/18 11:03:49;;;;;;;;;;;;;;;;;;5008664;28;19909;-44
2023/11/18 11:06:17;;;;;;;;;;;;;;;;;;5001579;28;19964;-43
2023/11/18 11:08:42;;;;;;;;;;;;;;;;;;4998460;28;19948;-44
2023/11/18 11:11:09;;;;;;;;;;;;;;;;;;5009214;28;19935;-45
2023/11/18 11:13:37;;;;;;;;;;;;;;;;;;5009267;28;19914;-44
2023/11/18 11:16:05;;;;;;;;;;;;;;;;;;5021179;28;19913;-43
2023/11/18 11:18:34;;;;;;;;;;;;;;;;;;5018475;28;20366;-43
2023/11/18 11:21:03;;;;;;;;;;;;;;;;;;4999243;28;19913;-46
2023/11/18 11:23:32;;;;;;;;;;;;;;;;;;4997281;28;19913;-47
2023/11/18 11:25:58;;;;;;;;;;;;;;;;;;5002089;28;19920;-44
2023/11/18 11:28:25;;;;;;;;;;;;;;;;;;5006588;28;19967;-44
2023/11/18 11:30:51;;;;;;;;;;;;;;;;;;5009581;28;19917;-44
2023/11/18 11:33:17;;;;;;;;;;;;;;;;;;5011369;28;19913;-44
2023/11/18 11:35:46;;;;;;;;;;;;;;;;;;5013011;28;20008;-46
2023/11/18 11:38:13;;;;;;;;;;;;;;;;;;5012924;28;19916;-46
2023/11/18 11:40:39;;;;;;;;;;;;;;;;;;5012987;28;19909;-45
2023/11/18 11:43:05;;;;;;;;;;;;;;;;;;4995256;28;19917;-46
2023/11/18 11:45:30;;;;;;;;;;;;;;;;;;5013668;28;19910;-45
2023/11/18 11:48:13;;;;;;;;;;;;;;;;;;5013160;28;19913;-47
2023/11/18 11:50:43;;;;;;;;;;;;;;;;;;5011441;28;19910;-45
2023/11/18 11:53:09;;;;;;;;;;;;;;;;;;5011010;28;20342;-46
2023/11/18 11:55:36;;;;;;;;;;;;;;;;;;5010443;28;19948;-48
2023/11/18 11:58:02;;;;;;;;;;;;;;;;;;5012220;28;19913;-43
2023/11/18 12:00:34;;;;;;;;;;;;;;;;;;5012129;28;19913;-49
2023/11/18 12:03:03;;;;;;;;;;;;;;;;;;5012614;28;19921;-44
2023/11/18 12:05:33;;;;;;;;;;;;;;;;;;4998553;28;19963;-44
2023/11/18 12:07:59;;;;;;;;;;;;;;;;;;4997192;28;20365;-44
2023/11/18 12:12:58;;;;;;;;;;;;;;;;;;5011067;28;20316;-45
2023/11/18 12:15:24;;;;;;;;;;;;;;;;;;5013540;28;19924;-46
2023/11/18 12:17:50;;;;;;;;;;;;;;;;;;5010884;28;19956;-46
2023/11/18 12:20:18;;;;;;;;;;;;;;;;;;5011490;28;19910;-45
2023/11/18 12:22:46;;;;;;;;;;;;;;;;;;5010213;28;20377;-44
2023/11/18 12:25:14;;;;;;;;;;;;;;;;;;5010474;28;19913;-45
2023/11/18 12:27:40;;;;;;;;;;;;;;;;;;5011303;28;19909;-45
2023/11/18 12:30:10;;;;;;;;;;;;;;;;;;5011333;28;19916;-44
2023/11/18 12:32:36;;;;;;;;;;;;;;;;;;5010961;28;19909;-46
2023/11/18 12:35:02;;;;;;;;;;;;;;;;;;5011746;28;19984;-44
2023/11/18 12:37:28;;;;;;;;;;;;;;;;;;5011517;28;20436;-46
2023/11/18 12:39:53;;;;;;;;;;;;;;;;;;5009434;28;20034;-45
2023/11/18 12:42:20;;;;;;;;;;;;;;;;;;5009003;28;20280;-44
2023/11/18 12:44:46;;;;;;;;;;;;;;;;;;5011080;28;19910;-44
2023/11/18 12:47:18;;;;;;;;;;;;;;;;;;5009260;28;19917;-44
2023/11/18 12:49:44;;;;;;;;;;;;;;;;;;5008884;28;19917;-45
2023/11/18 12:52:10;;;;;;;;;;;;;;;;;;5011393;28;19916;-45
2023/11/18 12:54:43;;;;;;;;;;;;;;;;;;5011495;28;19914;-45
2023/11/18 12:57:09;;;;;;;;;;;;;;;;;;5011461;28;20000;-48
2023/11/18 12:59:35;;;;;;;;;;;;;;;;;;5011527;28;19909;-44
2023/11/18 13:02:04;;;;;;;;;;;;;;;;;;5011750;28;19913;-47
2023/11/18 13:04:30;;;;;;;;;;;;;;;;;;5012252;28;20274;-46
2023/11/18 13:06:56;;;;;;;;;;;;;;;;;;5011425;28;19909;-44
2023/11/18 13:09:25;;;;;;;;;;;;;;;;;;5010809;28;20306;-47
2023/11/18 13:11:51;;;;;;;;;;;;;;;;;;5009275;28;20015;-44
2023/11/18 13:14:17;;;;;;;;;;;;;;;;;;5007032;28;19972;-48
2023/11/18 13:16:45;;;;;;;;;;;;;;;;;;5011480;28;19914;-46
2023/11/18 13:19:11;;;;;;;;;;;;;;;;;;5004463;28;19929;-44
2023/11/18 13:21:37;;;;;;;;;;;;;;;;;;4991580;28;19925;-45
2023/11/18 13:24:05;;;;;;;;;;;;;;;;;;4994322;28;19918;-45
2023/11/18 13:26:33;;;;;;;;;;;;;;;;;;4995045;28;19921;-47
2023/11/18 13:28:59;;;;;;;;;;;;;;;;;;4991727;28;19916;-44
2023/11/18 13:31:25;;;;;;;;;;;;;;;;;;4991454;28;19910;-47
2023/11/18 13:33:51;;;;;;;;;;;;;;;;;;4991100;28;19916;-47
2023/11/18 13:36:17;;;;;;;;;;;;;;;;;;4991064;28;19909;-45
2023/11/18 13:38:44;;;;;;;;;;;;;;;;;;5009911;28;19910;-45
2023/11/18 13:41:13;;;;;;;;;;;;;;;;;;5010790;28;19916;-44
2023/11/18 13:43:38;;;;;;;;;;;;;;;;;;5010582;28;19917;-46
2023/11/18 13:46:04;;;;;;;;;;;;;;;;;;5010450;28;19913;-46
2023/11/18 13:48:33;;;;;;;;;;;;;;;;;;5010900;28;19924;-49
2023/11/18 13:50:59;;;;;;;;;;;;;;;;;;5011367;28;19941;-46
2023/11/18 13:53:26;;;;;;;;;;;;;;;;;;5010504;28;19975;-46
2023/11/18 13:55:52;;;;;;;;;;;;;;;;;;5009786;28;20006;-45
2023/11/18 13:58:19;;;;;;;;;;;;;;;;;;5010231;28;19956;-46
2023/11/18 14:00:45;;;;;;;;;;;;;;;;;;5009170;28;19909;-47
2023/11/18 14:03:11;;;;;;;;;;;;;;;;;;5003282;28;19922;-48
2023/11/18 14:05:37;;;;;;;;;;;;;;;;;;5010157;28;19992;-49
2023/11/18 14:08:08;;;;;;;;;;;;;;;;;;5009271;28;19921;-43
2023/11/18 14:10:38;;;;;;;;;;;;;;;;;;5008822;28;19917;-47
2023/11/18 14:13:05;;;;;;;;;;;;;;;;;;5009278;28;20274;-47
2023/11/18 14:15:31;;;;;;;;;;;;;;;;;;5009895;28;20328;-49
2023/11/18 14:17:57;;;;;;;;;;;;;;;;;;5009418;28;19917;-48
2023/11/18 14:20:23;;;;;;;;;;;;;;;;;;5009012;28;20129;-46
2023/11/18 14:22:49;;;;;;;;;;;;;;;;;;5007876;28;19967;-47
2023/11/18 14:25:15;;;;;;;;;;;;;;;;;;5001095;28;20027;-46
2023/11/18 14:27:41;;;;;;;;;;;;;;;;;;4992058;28;19949;-49
2023/11/18 14:30:09;;;;;;;;;;;;;;;;;;4990546;28;19910;-46
2023/11/18 14:32:35;;;;;;;;;;;;;;;;;;5006647;28;19921;-48
2023/11/18 14:35:01;;;;;;;;;;;;;;;;;;5010786;28;19914;-45
2023/11/18 14:37:27;;;;;;;;;;;;;;;;;;5009734;28;20000;-45
2023/11/18 14:39:53;;;;;;;;;;;;;;;;;;5009852;28;19956;-48
2023/11/18 14:42:19;;;;;;;;;;;;;;;;;;5009759;28;19909;-49
2023/11/18 14:44:45;;;;;;;;;;;;;;;;;;5006043;28;19914;-47
2023/11/18 14:47:11;;;;;;;;;;;;;;;;;;4990341;28;20382;-47
2023/11/18 14:49:37;;;;;;;;;;;;;;;;;;5007069;28;19914;-48
2023/11/18 14:52:03;;;;;;;;;;;;;;;;;;5010187;28;19985;-45
2023/11/18 14:54:35;;;;;;;;;;;;;;;;;;5012753;28;20914;-47
2023/11/18 14:57:01;;;;;;;;;;;;;;;;;;5002561;28;19962;-45
2023/11/18 14:59:27;;;;;;;;;;;;;;;;;;4994635;28;19956;-45
2023/11/18 15:01:57;;;;;;;;;;;;;;;;;;5007828;28;20432;-49
2023/11/18 15:04:23;;;;;;;;;;;;;;;;;;5009742;28;19913;-45
2023/11/18 15:06:52;;;;;;;;;;;;;;;;;;5010584;28;19910;-47
2023/11/18 15:09:18;;;;;;;;;;;;;;;;;;5011309;28;20416;-45
2023/11/18 15:11:44;;;;;;;;;;;;;;;;;;5011460;28;19922;-45
2023/11/18 15:14:11;;;;;;;;;;;;;;;;;;5011720;28;19917;-49
2023/11/18 15:16:37;;;;;;;;;;;;;;;;;;5012298;28;20306;-44
2023/11/18 15:19:03;;;;;;;;;;;;;;;;;;5012962;28;19916;-44
2023/11/18 15:21:29;;;;;;;;;;;;;;;;;;5014325;28;20032;-44
2023/11/18 15:24:00;;;;;;;;;;;;;;;;;;5013455;28;20390;-44
2023/11/18 15:26:26;;;;;;;;;;;;;;;;;;5006430;28;19913;-46
2023/11/18 15:28:56;;;;;;;;;;;;;;;;;;5013037;28;19971;-45
2023/11/18 15:31:24;;;;;;;;;;;;;;;;;;5011127;28;20290;-46
2023/11/18 15:33:50;;;;;;;;;;;;;;;;;;5003553;28;19913;-45
2023/11/18 15:36:16;;;;;;;;;;;;;;;;;;4993868;28;20000;-45
2023/11/18 15:38:43;;;;;;;;;;;;;;;;;;4993548;28;19960;-44
2023/11/18 15:41:11;;;;;;;;;;;;;;;;;;4993520;28;19910;-44
2023/11/18 15:43:37;;;;;;;;;;;;;;;;;;4992292;28;20475;-44
2023/11/18 15:46:06;;;;;;;;;;;;;;;;;;4994095;28;19917;-48
2023/11/18 15:48:32;;;;;;;;;;;;;;;;;;5001483;28;19936;-46
2023/11/18 15:50:58;;;;;;;;;;;;;;;;;;5001592;28;20551;-46
2023/11/18 15:53:24;;;;;;;;;;;;;;;;;;4993694;28;19910;-44
2023/11/18 15:55:51;;;;;;;;;;;;;;;;;;4993280;28;19940;-46
2023/11/18 15:58:22;;;;;;;;;;;;;;;;;;4993385;28;19910;-44
2023/11/18 16:00:52;;;;;;;;;;;;;;;;;;4993353;28;19916;-45
2023/11/18 16:03:19;;;;;;;;;;;;;;;;;;4994714;28;19949;-48
2023/11/18 16:05:45;;;;;;;;;;;;;;;;;;5012765;28;19910;-45
2023/11/18 16:08:11;;;;;;;;;;;;;;;;;;5012739;28;19909;-45
2023/11/18 16:10:37;;;;;;;;;;;;;;;;;;5012571;28;19996;-45
2023/11/18 16:13:03;;;;;;;;;;;;;;;;;;5012760;28;20432;-44
2023/11/18 16:15:29;;;;;;;;;;;;;;;;;;5012901;28;20430;-45
2023/11/18 16:17:55;;;;;;;;;;;;;;;;;;5010696;28;19953;-44
2023/11/18 16:20:20;;;;;;;;;;;;;;;;;;4994913;28;19914;-49
2023/11/18 16:22:49;;;;;;;;;;;;;;;;;;4992858;28;19949;-47
2023/11/18 16:25:17;;;;;;;;;;;;;;;;;;4992765;28;19910;-47
2023/11/18 16:27:43;;;;;;;;;;;;;;;;;;5008801;28;20400;-47
2023/11/18 16:30:09;;;;;;;;;;;;;;;;;;5010110;28;20001;-45
2023/11/18 16:32:36;;;;;;;;;;;;;;;;;;5004015;28;19913;-45
2023/11/18 16:35:02;;;;;;;;;;;;;;;;;;5007496;28;19917;-47
2023/11/18 16:37:28;;;;;;;;;;;;;;;;;;5006700;28;19920;-47
2023/11/18 16:39:54;;;;;;;;;;;;;;;;;;4999527;28;19996;-46
2023/11/18 16:42:23;;;;;;;;;;;;;;;;;;4994650;28;20468;-49
2023/11/18 16:44:49;;;;;;;;;;;;;;;;;;5010215;28;20296;-45
2023/11/18 16:47:15;;;;;;;;;;;;;;;;;;4995812;28;19914;-47
2023/11/18 16:49:43;;;;;;;;;;;;;;;;;;5004620;28;19949;-46
2023/11/18 16:52:09;;;;;;;;;;;;;;;;;;5003805;28;19945;-45
2023/11/18 16:54:35;;;;;;;;;;;;;;;;;;4998802;28;19968;-45
2023/11/18 16:57:01;;;;;;;;;;;;;;;;;;5011461;28;19916;-45
2023/11/18 16:59:27;;;;;;;;;;;;;;;;;;5001240;28;19914;-48
2023/11/18 17:01:53;;;;;;;;;;;;;;;;;;4992185;28;20536;-46
2023/11/18 17:04:19;;;;;;;;;;;;;;;;;;4992115;28;19992;-48
2023/11/18 17:06:46;;;;;;;;;;;;;;;;;;5001965;28;19921;-44
2023/11/18 17:09:12;;;;;;;;;;;;;;;;;;5010555;28;19913;-44
2023/11/18 17:11:38;;;;;;;;;;;;;;;;;;5010138;28;20024;-44
2023/11/18 17:14:05;;;;;;;;;;;;;;;;;;5010831;28;19922;-45
2023/11/18 17:16:31;;;;;;;;;;;;;;;;;;5011084;28;20000;-45
2023/11/18 17:18:57;;;;;;;;;;;;;;;;;;5014292;28;20004;-46
2023/11/18 17:21:23;;;;;;;;;;;;;;;;;;5010232;28;19917;-46
2023/11/18 17:23:50;;;;;;;;;;;;;;;;;;5014690;28;19913;-46
2023/11/18 17:26:16;;;;;;;;;;;;;;;;;;5014660;28;19910;-48
2023/11/18 17:28:42;;;;;;;;;;;;;;;;;;5008410;28;19921;-47
2023/11/18 17:31:08;;;;;;;;;;;;;;;;;;5010286;28;20370;-46
2023/11/18 17:33:34;;;;;;;;;;;;;;;;;;5011112;28;19913;-44
2023/11/18 17:36:01;;;;;;;;;;;;;;;;;;5008697;28;19924;-44
2023/11/18 17:38:27;;;;;;;;;;;;;;;;;;4997585;28;19982;-44
2023/11/18 17:40:53;;;;;;;;;;;;;;;;;;4991174;28;19955;-44
2023/11/18 17:43:19;;;;;;;;;;;;;;;;;;4991375;28;19916;-47
2023/11/18 17:45:46;;;;;;;;;;;;;;;;;;4991555;28;19917;-45
2023/11/18 17:48:12;;;;;;;;;;;;;;;;;;5002692;28;19913;-44
2023/11/18 17:50:38;;;;;;;;;;;;;;;;;;5008836;28;19920;-44
2023/11/18 17:53:04;;;;;;;;;;;;;;;;;;5010846;28;20028;-44
2023/11/18 17:55:30;;;;;;;;;;;;;;;;;;5010926;28;19917;-45
2023/11/18 17:57:56;;;;;;;;;;;;;;;;;;5003998;28;19913;-46
2023/11/18 18:00:23;;;;;;;;;;;;;;;;;;5009160;28;20341;-45
2023/11/18 18:02:56;;;;;;;;;;;;;;;;;;5085778;28;19940;-43
2023/11/18 18:05:25;;;;;;;;;;;;;;;;;;5087075;28;19912;-48
2023/11/18 18:07:51;;;;;;;;;;;;;;;;;;5084207;28;19930;-44
2023/11/18 18:10:17;;;;;;;;;;;;;;;;;;5087112;28;19974;-46
2023/11/18 18:12:46;;;;;;;;;;;;;;;;;;5086752;28;19908;-45
2023/11/18 18:15:12;;;;;;;;;;;;;;;;;;5074046;28;19912;-47
2023/11/18 18:17:38;;;;;;;;;;;;;;;;;;5066553;28;19917;-48
2023/11/18 18:20:08;;;;;;;;;;;;;;;;;;5082122;28;19908;-46
2023/11/18 18:22:34;;;;;;;;;;;;;;;;;;5086692;28;19924;-46
2023/11/18 18:25:00;;;;;;;;;;;;;;;;;;5086982;28;19908;-45
2023/11/18 18:27:25;;;;;;;;;;;;;;;;;;5079132;28;19943;-46
2023/11/18 18:29:51;;;;;;;;;;;;;;;;;;5084089;28;19936;-47
2023/11/18 18:32:17;;;;;;;;;;;;;;;;;;5082923;28;19912;-45
2023/11/18 18:34:43;;;;;;;;;;;;;;;;;;5079060;28;19912;-45
2023/11/18 18:37:09;;;;;;;;;;;;;;;;;;5083861;28;19966;-47
2023/11/18 18:39:35;;;;;;;;;;;;;;;;;;5084237;28;19997;-48
2023/11/18 18:42:01;;;;;;;;;;;;;;;;;;5082715;28;19962;-47
2023/11/18 18:44:27;;;;;;;;;;;;;;;;;;5085479;28;19912;-47
2023/11/18 18:46:54;;;;;;;;;;;;;;;;;;5084211;28;19908;-46
2023/11/18 18:49:20;;;;;;;;;;;;;;;;;;5084203;28;19993;-45
2023/11/18 18:51:46;;;;;;;;;;;;;;;;;;5082182;28;19978;-49
2023/11/18 18:54:12;;;;;;;;;;;;;;;;;;5086394;28;19924;-45
2023/11/18 18:56:38;;;;;;;;;;;;;;;;;;5086225;28;20018;-49
2023/11/18 18:59:10;;;;;;;;;;;;;;;;;;5083968;28;19913;-46
2023/11/18 19:01:37;;;;;;;;;;;;;;;;;;5080795;28;19921;-48
2023/11/18 19:04:02;;;;;;;;;;;;;;;;;;5084165;28;19954;-47
2023/11/18 19:06:30;;;;;;;;;;;;;;;;;;5082043;28;20402;-45
2023/11/18 19:08:56;;;;;;;;;;;;;;;;;;5081764;28;19938;-45
2023/11/18 19:11:22;;;;;;;;;;;;;;;;;;5080988;28;19919;-45
2023/11/18 19:13:48;;;;;;;;;;;;;;;;;;5062273;28;19916;-45
2023/11/18 19:16:14;;;;;;;;;;;;;;;;;;5069586;28;20379;-45
2023/11/18 19:18:40;;;;;;;;;;;;;;;;;;5063925;28;19912;-46
2023/11/18 19:21:08;;;;;;;;;;;;;;;;;;5067491;28;20310;-46
2023/11/18 19:23:35;;;;;;;;;;;;;;;;;;5068920;28;19917;-46
2023/11/18 19:26:02;;;;;;;;;;;;;;;;;;5070432;28;19909;-47
2023/11/18 19:28:28;;;;;;;;;;;;;;;;;;5062629;28;19917;-45
2023/11/18 19:30:54;;;;;;;;;;;;;;;;;;5064191;28;20324;-46
2023/11/18 19:33:20;;;;;;;;;;;;;;;;;;5065703;28;19955;-45
2023/11/18 19:35:45;;;;;;;;;;;;;;;;;;5065306;28;20290;-46
2023/11/18 19:38:11;;;;;;;;;;;;;;;;;;5066645;28;19916;-46
2023/11/18 19:40:37;;;;;;;;;;;;;;;;;;5055580;28;20433;-46
2023/11/18 19:43:03;;;;;;;;;;;;;;;;;;5059475;28;19948;-46
2023/11/18 19:45:29;;;;;;;;;;;;;;;;;;5059873;28;19935;-44
2023/11/18 19:47:55;;;;;;;;;;;;;;;;;;5059671;28;19924;-48
2023/11/18 19:50:21;;;;;;;;;;;;;;;;;;5061833;28;19920;-47
2023/11/18 19:52:46;;;;;;;;;;;;;;;;;;5062313;28;20054;-46
2023/11/18 19:55:14;;;;;;;;;;;;;;;;;;5060287;28;19912;-46
2023/11/18 19:57:40;;;;;;;;;;;;;;;;;;5064102;28;19947;-46
2023/11/18 20:00:08;;;;;;;;;;;;;;;;;;5062065;28;20162;-45
2023/11/18 20:02:34;;;;;;;;;;;;;;;;;;5067877;28;19917;-46
2023/11/18 20:05:00;;;;;;;;;;;;;;;;;;5068415;28;19912;-46
2023/11/18 20:07:27;;;;;;;;;;;;;;;;;;5067681;28;19995;-46
2023/11/18 20:09:57;;;;;;;;;;;;;;;;;;5054100;28;20913;-45
2023/11/18 20:12:24;;;;;;;;;;;;;;;;;;5057424;28;19924;-46
2023/11/18 20:14:50;;;;;;;;;;;;;;;;;;5050065;28;19994;-46
2023/11/18 20:17:17;;;;;;;;;;;;;;;;;;5055965;28;19913;-46
2023/11/18 20:19:43;;;;;;;;;;;;;;;;;;5047430;28;19940;-46
2023/11/18 20:22:09;;;;;;;;;;;;;;;;;;5047979;28;19990;-46
2023/11/18 20:24:35;;;;;;;;;;;;;;;;;;5055381;28;20406;-45
2023/11/18 20:27:01;;;;;;;;;;;;;;;;;;5059770;28;19920;-46
2023/11/18 20:29:29;;;;;;;;;;;;;;;;;;5066141;28;19915;-48
2023/11/18 20:31:55;;;;;;;;;;;;;;;;;;5053752;28;20318;-45
2023/11/18 20:34:20;;;;;;;;;;;;;;;;;;5066990;28;19977;-47
2023/11/18 20:36:46;;;;;;;;;;;;;;;;;;5066761;28;19967;-48
2023/11/18 20:39:17;;;;;;;;;;;;;;;;;;5066200;28;19909;-46
2023/11/18 20:41:44;;;;;;;;;;;;;;;;;;5058019;28;19912;-48
2023/11/18 20:44:10;;;;;;;;;;;;;;;;;;5066638;28;19913;-46
2023/11/18 20:46:35;;;;;;;;;;;;;;;;;;5066753;28;19931;-46
2023/11/18 20:49:01;;;;;;;;;;;;;;;;;;5048600;28;19952;-46
2023/11/18 20:51:27;;;;;;;;;;;;;;;;;;5047308;28;19912;-46
2023/11/18 20:53:53;;;;;;;;;;;;;;;;;;5047061;28;20360;-46
2023/11/18 20:56:20;;;;;;;;;;;;;;;;;;5061114;28;19932;-46
2023/11/18 20:58:47;;;;;;;;;;;;;;;;;;5063108;28;20370;-46
2023/11/18 21:01:15;;;;;;;;;;;;;;;;;;5056502;28;19916;-47
2023/11/18 21:03:41;;;;;;;;;;;;;;;;;;5064402;28;19912;-45
2023/11/18 21:06:07;;;;;;;;;;;;;;;;;;5066769;28;19909;-47
2023/11/18 21:08:33;;;;;;;;;;;;;;;;;;5060546;28;19923;-44
2023/11/18 21:10:58;;;;;;;;;;;;;;;;;;5053236;28;19961;-45
2023/11/18 21:13:25;;;;;;;;;;;;;;;;;;5067078;28;19912;-46
2023/11/18 21:15:51;;;;;;;;;;;;;;;;;;5066562;28;19908;-45
2023/11/18 21:18:17;;;;;;;;;;;;;;;;;;5063582;28;19908;-49
2023/11/18 21:20:42;;;;;;;;;;;;;;;;;;5063454;28;19912;-46
2023/11/18 21:23:08;;;;;;;;;;;;;;;;;;5047399;28;19919;-45
2023/11/18 21:25:35;;;;;;;;;;;;;;;;;;5046430;28;19920;-47
2023/11/18 21:28:04;;;;;;;;;;;;;;;;;;5048177;28;20302;-48
2023/11/18 21:30:30;;;;;;;;;;;;;;;;;;5046181;28;19967;-48
2023/11/18 21:32:58;;;;;;;;;;;;;;;;;;5046559;28;19917;-48
2023/11/18 21:35:24;;;;;;;;;;;;;;;;;;5059979;28;20025;-46
2023/11/18 21:37:50;;;;;;;;;;;;;;;;;;5066360;28;20402;-45
2023/11/18 21:40:16;;;;;;;;;;;;;;;;;;5066291;28;19955;-46
2023/11/18 21:42:42;;;;;;;;;;;;;;;;;;5064615;28;20385;-46
2023/11/18 21:45:08;;;;;;;;;;;;;;;;;;5066013;28;19947;-45
2023/11/18 21:47:34;;;;;;;;;;;;;;;;;;5063174;28;20294;-47
2023/11/18 21:50:00;;;;;;;;;;;;;;;;;;5067017;28;19916;-48
2023/11/18 21:52:26;;;;;;;;;;;;;;;;;;5066715;28;19909;-49
2023/11/18 21:54:52;;;;;;;;;;;;;;;;;;5052952;28;19962;-48
2023/11/18 21:57:18;;;;;;;;;;;;;;;;;;5044938;28;19967;-45
2023/11/18 21:59:44;;;;;;;;;;;;;;;;;;5046476;28;19909;-48
2023/11/18 22:02:11;;;;;;;;;;;;;;;;;;5046690;28;19924;-47
2023/11/18 22:04:37;;;;;;;;;;;;;;;;;;5044531;28;19959;-46
2023/11/18 22:07:05;;;;;;;;;;;;;;;;;;5064268;28;20398;-48
2023/11/18 22:09:31;;;;;;;;;;;;;;;;;;5065454;28;19955;-47
2023/11/18 22:11:57;;;;;;;;;;;;;;;;;;5064204;28;20426;-45
2023/11/18 22:14:25;;;;;;;;;;;;;;;;;;5061478;28;19917;-49
2023/11/18 22:16:51;;;;;;;;;;;;;;;;;;5055398;28;19912;-47
2023/11/18 22:19:16;;;;;;;;;;;;;;;;;;5066265;28;20418;-45
2023/11/18 22:21:42;;;;;;;;;;;;;;;;;;5064578;28;19990;-46
2023/11/18 22:24:09;;;;;;;;;;;;;;;;;;5066200;28;20370;-47
2023/11/18 22:26:35;;;;;;;;;;;;;;;;;;5059885;28;20318;-48
2023/11/18 22:29:01;;;;;;;;;;;;;;;;;;5048235;28;19908;-46
2023/11/18 22:31:29;;;;;;;;;;;;;;;;;;5063986;28;20419;-45
2023/11/18 22:33:55;;;;;;;;;;;;;;;;;;5060292;28;19956;-44
2023/11/18 22:36:21;;;;;;;;;;;;;;;;;;5046015;28;20468;-47
2023/11/18 22:38:47;;;;;;;;;;;;;;;;;;5045746;28;19915;-45
2023/11/18 22:41:14;;;;;;;;;;;;;;;;;;5045631;28;20307;-47
2023/11/18 22:43:40;;;;;;;;;;;;;;;;;;5044941;28;19979;-45
2023/11/18 22:46:10;;;;;;;;;;;;;;;;;;5046417;28;19908;-45
2023/11/18 22:48:36;;;;;;;;;;;;;;;;;;5048792;28;19913;-47